createdAt,value
2019-03-23T00:00:15.966Z,9.60
2019-03-23T00:02:45.374Z,9.60
2019-03-23T00:05:15.354Z,9.70
2019-03-23T00:07:44.693Z,9.70
2019-03-23T00:10:14.031Z,9.70
2019-03-23T00:12:43.374Z,9.80
2019-03-23T00:15:12.884Z,9.80
2019-03-23T00:17:42.220Z,9.80
2019-03-23T00:20:12.035Z,9.80
2019-03-23T00:22:41.376Z,9.80
2019-03-23T00:25:10.889Z,9.80
2019-03-23T00:27:40.236Z,9.80
2019-03-23T00:30:14.749Z,9.80
2019-03-23T00:32:44.102Z,9.90
2019-03-23T00:35:13.810Z,9.90
2019-03-23T00:37:43.167Z,9.90
2019-03-23T00:40:13.014Z,10.00
2019-03-23T00:42:42.372Z,10.00
2019-03-23T00:45:11.871Z,10.00
2019-03-23T00:47:41.219Z,10.00
2019-03-23T00:50:11.025Z,10.00
2019-03-23T00:52:40.378Z,10.00
2019-03-23T00:55:09.987Z,10.00
2019-03-23T00:57:39.341Z,10.00
2019-03-23T01:00:12.387Z,10.00
2019-03-23T01:02:42.165Z,10.00
2019-03-23T01:05:11.528Z,10.00
2019-03-23T01:07:41.160Z,10.10
2019-03-23T01:10:13.410Z,10.00
2019-03-23T01:12:42.756Z,10.00
2019-03-23T01:15:13.817Z,10.00
2019-03-23T01:17:43.243Z,10.00
2019-03-23T01:20:14.499Z,10.00
2019-03-23T01:22:43.872Z,10.10
2019-03-23T01:25:13.655Z,10.10
2019-03-23T01:27:43.227Z,10.10
2019-03-23T01:30:15.178Z,10.10
2019-03-23T01:32:44.515Z,10.10
2019-03-23T01:35:14.107Z,10.10
2019-03-23T01:37:43.468Z,10.00
2019-03-23T01:40:13.324Z,10.10
2019-03-23T01:42:42.663Z,10.10
2019-03-23T01:45:13.826Z,10.00
2019-03-23T01:47:43.177Z,9.90
2019-03-23T01:50:13.421Z,9.90
2019-03-23T01:52:42.770Z,9.80
2019-03-23T01:55:12.278Z,9.80
2019-03-23T01:57:41.621Z,9.70
2019-03-23T02:00:13.780Z,9.70
2019-03-23T02:02:43.114Z,9.60
2019-03-23T02:05:12.767Z,9.60
2019-03-23T02:07:42.107Z,9.60
2019-03-23T02:10:12.959Z,9.60
2019-03-23T02:12:42.372Z,9.60
2019-03-23T02:15:13.520Z,9.60
2019-03-23T02:17:42.871Z,9.60
2019-03-23T02:20:14.218Z,9.60
2019-03-23T02:22:43.553Z,9.50
2019-03-23T02:25:13.338Z,9.40
2019-03-23T02:27:42.683Z,9.30
2019-03-23T02:30:13.541Z,9.30
2019-03-23T02:32:42.874Z,9.20
2019-03-23T02:35:12.365Z,9.10
2019-03-23T02:37:41.709Z,9.10
2019-03-23T02:40:11.822Z,9.00
2019-03-23T02:42:41.178Z,9.00
2019-03-23T02:45:13.974Z,8.90
2019-03-23T02:47:43.307Z,8.80
2019-03-23T02:50:13.298Z,8.80
2019-03-23T02:52:42.659Z,8.70
2019-03-23T02:55:12.907Z,8.70
2019-03-23T02:57:42.242Z,8.60
2019-03-23T03:00:16.566Z,8.60
2019-03-23T03:02:45.911Z,8.50
2019-03-23T03:05:15.325Z,8.50
2019-03-23T03:07:44.661Z,8.40
2019-03-23T03:10:21.293Z,8.40
2019-03-23T03:12:50.643Z,8.30
2019-03-23T03:15:19.985Z,8.30
2019-03-23T03:17:49.335Z,8.20
2019-03-23T03:20:18.680Z,8.10
2019-03-23T03:22:48.016Z,8.00
2019-03-23T03:25:17.399Z,8.00
2019-03-23T03:27:46.733Z,8.00
2019-03-23T03:30:16.158Z,7.90
2019-03-23T03:32:45.492Z,7.90
2019-03-23T03:35:14.903Z,7.80
2019-03-23T03:37:55.954Z,7.80
2019-03-23T03:40:15.547Z,7.80
2019-03-23T03:42:44.894Z,7.80
2019-03-23T03:45:24.826Z,7.80
2019-03-23T03:47:54.242Z,7.80
2019-03-23T03:50:23.758Z,7.80
2019-03-23T03:52:53.107Z,7.80
2019-03-23T03:55:22.450Z,7.90
2019-03-23T03:57:51.827Z,7.90
2019-03-23T04:00:21.168Z,7.90
2019-03-23T04:02:50.602Z,7.90
2019-03-23T04:05:19.934Z,8.00
2019-03-23T04:07:49.280Z,8.00
2019-03-23T04:10:18.618Z,8.10
2019-03-23T04:12:47.959Z,8.20
2019-03-23T04:15:17.333Z,8.20
2019-03-23T04:17:46.658Z,8.30
2019-03-23T04:20:16.015Z,8.30
2019-03-23T04:22:45.343Z,8.40
2019-03-23T04:25:14.852Z,8.50
2019-03-23T04:27:44.195Z,8.60
2019-03-23T04:30:14.354Z,8.60
2019-03-23T04:32:43.692Z,8.70
2019-03-23T04:35:13.301Z,8.80
2019-03-23T04:37:42.640Z,8.80
2019-03-23T04:40:12.787Z,8.90
2019-03-23T04:42:42.304Z,9.00
2019-03-23T04:45:12.382Z,9.00
2019-03-23T04:47:41.725Z,9.00
2019-03-23T04:50:12.769Z,9.10
2019-03-23T04:52:42.107Z,9.10
2019-03-23T04:55:14.527Z,9.10
2019-03-23T04:57:43.860Z,9.20
2019-03-23T05:00:20.035Z,9.20
2019-03-23T05:02:49.390Z,9.20
2019-03-23T05:05:18.728Z,9.20
2019-03-23T05:07:48.110Z,9.30
2019-03-23T05:10:17.449Z,9.30
2019-03-23T05:12:46.787Z,9.30
2019-03-23T05:15:16.133Z,9.30
2019-03-23T05:17:45.465Z,9.40
2019-03-23T05:20:27.856Z,9.40
2019-03-23T05:22:57.266Z,9.40
2019-03-23T05:25:29.221Z,9.40
2019-03-23T05:27:59.030Z,9.40
2019-03-23T05:30:28.370Z,9.50
2019-03-23T05:32:57.714Z,9.50
2019-03-23T05:35:27.053Z,9.50
2019-03-23T05:37:56.389Z,9.50
2019-03-23T05:40:25.728Z,9.50
2019-03-23T05:42:55.065Z,9.50
2019-03-23T05:45:24.407Z,9.60
2019-03-23T05:47:53.752Z,9.60
2019-03-23T05:50:23.093Z,9.60
2019-03-23T05:52:52.435Z,9.60
2019-03-23T05:55:21.787Z,9.60
2019-03-23T05:57:51.128Z,9.70
2019-03-23T06:00:20.907Z,9.70
2019-03-23T06:02:50.266Z,9.70
2019-03-23T06:05:19.598Z,9.70
2019-03-23T06:07:49.115Z,9.80
2019-03-23T06:10:18.442Z,9.80
2019-03-23T06:12:47.782Z,9.80
2019-03-23T06:15:17.127Z,9.80
2019-03-23T06:17:46.468Z,9.80
2019-03-23T06:20:15.807Z,9.90
2019-03-23T06:22:45.145Z,9.90
2019-03-23T06:25:14.487Z,9.90
2019-03-23T06:27:43.827Z,9.90
2019-03-23T06:30:13.336Z,9.90
2019-03-23T06:32:42.679Z,9.90
2019-03-23T06:35:12.265Z,10.00
2019-03-23T06:37:41.712Z,10.00
2019-03-23T06:40:11.964Z,10.00
2019-03-23T06:42:41.307Z,10.10
2019-03-23T06:45:11.934Z,10.10
2019-03-23T06:47:41.275Z,10.10
2019-03-23T06:50:12.340Z,10.10
2019-03-23T06:52:42.564Z,10.10
2019-03-23T06:55:12.365Z,10.20
2019-03-23T06:57:41.707Z,10.20
2019-03-23T07:00:15.097Z,10.20
2019-03-23T07:02:44.452Z,10.30
2019-03-23T07:05:14.503Z,10.30
2019-03-23T07:07:43.914Z,10.30
2019-03-23T07:10:14.573Z,10.40
2019-03-23T07:12:43.916Z,10.40
2019-03-23T07:15:20.084Z,10.40
2019-03-23T07:17:45.052Z,10.40
2019-03-23T07:20:15.194Z,10.50
2019-03-23T07:22:44.606Z,10.50
2019-03-23T07:25:14.030Z,10.50
2019-03-23T07:27:43.378Z,10.50
2019-03-23T07:30:17.383Z,10.50
2019-03-23T07:32:46.797Z,10.50
2019-03-23T07:35:16.852Z,10.50
2019-03-23T07:37:46.510Z,10.50
2019-03-23T07:40:16.110Z,10.60
2019-03-23T07:42:45.447Z,10.60
2019-03-23T07:45:16.394Z,10.70
2019-03-23T07:47:45.741Z,10.80
2019-03-23T07:50:16.286Z,10.70
2019-03-23T07:52:45.803Z,10.70
2019-03-23T07:55:18.259Z,10.80
2019-03-23T07:57:47.599Z,10.80
2019-03-23T08:00:22.303Z,10.80
2019-03-23T08:02:51.916Z,10.80
2019-03-23T08:05:22.076Z,10.80
2019-03-23T08:07:51.513Z,10.90
2019-03-23T08:10:34.784Z,11.00
2019-03-23T08:13:04.678Z,11.00
2019-03-23T08:15:34.035Z,11.00
2019-03-23T08:18:03.384Z,11.10
2019-03-23T08:20:32.831Z,11.10
2019-03-23T08:23:02.178Z,11.10
2019-03-23T08:25:31.539Z,11.10
2019-03-23T08:28:00.883Z,11.10
2019-03-23T08:30:30.248Z,11.10
2019-03-23T08:32:59.588Z,11.10
2019-03-23T08:35:28.935Z,11.20
2019-03-23T08:37:58.281Z,11.20
2019-03-23T08:40:27.629Z,11.20
2019-03-23T08:42:56.978Z,11.30
2019-03-23T08:45:26.332Z,11.30
2019-03-23T08:47:55.682Z,11.10
2019-03-23T08:50:25.033Z,11.00
2019-03-23T08:52:54.385Z,10.90
2019-03-23T08:55:23.733Z,11.00
2019-03-23T08:57:53.113Z,11.10
2019-03-23T09:00:22.454Z,11.30
2019-03-23T09:02:51.812Z,11.40
2019-03-23T09:05:21.156Z,11.50
2019-03-23T09:07:52.542Z,11.60
2019-03-23T09:10:21.578Z,11.70
2019-03-23T09:12:50.945Z,11.80
2019-03-23T09:15:20.289Z,11.90
2019-03-23T09:17:49.639Z,11.90
2019-03-23T09:20:18.979Z,11.90
2019-03-23T09:22:48.326Z,12.00
2019-03-23T09:25:17.846Z,11.90
2019-03-23T09:27:47.191Z,11.90
2019-03-23T09:30:16.770Z,11.90
2019-03-23T09:32:46.117Z,12.10
2019-03-23T09:35:15.462Z,12.20
2019-03-23T09:37:44.804Z,12.20
2019-03-23T09:40:14.216Z,12.20
2019-03-23T09:42:43.554Z,12.30
2019-03-23T09:45:14.375Z,12.30
2019-03-23T09:47:43.870Z,12.40
2019-03-23T09:50:13.483Z,12.50
2019-03-23T09:52:42.841Z,12.60
2019-03-23T09:55:12.183Z,12.70
2019-03-23T09:57:41.713Z,12.80
2019-03-23T10:00:13.263Z,12.90
2019-03-23T10:02:42.623Z,12.90
2019-03-23T10:05:11.969Z,13.00
2019-03-23T10:07:41.316Z,13.10
2019-03-23T10:10:21.016Z,13.20
2019-03-23T10:12:42.063Z,13.30
2019-03-23T10:15:11.480Z,13.50
2019-03-23T10:17:40.819Z,13.40
2019-03-23T10:20:10.355Z,13.50
2019-03-23T10:22:39.698Z,13.60
2019-03-23T10:25:09.410Z,13.70
2019-03-23T10:27:38.757Z,13.20
2019-03-23T10:30:11.724Z,13.00
2019-03-23T10:32:41.070Z,13.10
2019-03-23T10:35:10.648Z,13.00
2019-03-23T10:37:40.003Z,12.80
2019-03-23T10:40:11.159Z,12.40
2019-03-23T10:42:40.496Z,12.40
2019-03-23T10:45:11.449Z,12.30
2019-03-23T10:47:40.869Z,12.30
2019-03-23T10:50:10.313Z,12.30
2019-03-23T10:52:39.659Z,12.40
2019-03-23T10:55:09.239Z,12.40
2019-03-23T10:57:38.592Z,12.50
2019-03-23T11:00:15.263Z,12.30
2019-03-23T11:02:44.612Z,12.30
2019-03-23T11:05:14.095Z,12.30
2019-03-23T11:07:43.455Z,12.40
2019-03-23T11:10:14.809Z,12.30
2019-03-23T11:12:45.122Z,12.40
2019-03-23T11:15:14.464Z,12.50
2019-03-23T11:17:43.809Z,12.40
2019-03-23T11:20:16.176Z,12.60
2019-03-23T11:22:45.524Z,12.50
2019-03-23T11:25:15.004Z,12.50
2019-03-23T11:27:44.353Z,12.60
2019-03-23T11:30:14.806Z,12.80
2019-03-23T11:32:44.232Z,12.90
2019-03-23T11:35:14.015Z,12.90
2019-03-23T11:37:43.631Z,12.90
2019-03-23T11:40:13.657Z,12.90
2019-03-23T11:42:49.737Z,13.00
2019-03-23T11:45:14.419Z,13.00
2019-03-23T11:47:43.766Z,12.80
2019-03-23T11:50:13.184Z,12.80
2019-03-23T11:52:42.532Z,12.80
2019-03-23T11:55:12.386Z,12.70
2019-03-23T11:57:41.732Z,12.80
2019-03-23T12:00:15.872Z,12.70
2019-03-23T12:02:45.225Z,12.60
2019-03-23T12:05:15.511Z,12.70
2019-03-23T12:07:44.930Z,12.50
2019-03-23T12:10:14.943Z,12.50
2019-03-23T12:12:44.288Z,12.50
2019-03-23T12:15:14.573Z,12.40
2019-03-23T12:17:43.984Z,12.20
2019-03-23T12:20:13.767Z,12.20
2019-03-23T12:22:43.126Z,12.20
2019-03-23T12:25:12.793Z,12.20
2019-03-23T12:27:42.138Z,12.30
2019-03-23T12:30:19.059Z,12.10
2019-03-23T12:32:48.405Z,12.10
2019-03-23T12:35:17.748Z,12.30
2019-03-23T12:37:47.125Z,12.30
2019-03-23T12:40:18.107Z,12.30
2019-03-23T12:42:47.459Z,12.10
2019-03-23T12:45:16.972Z,12.10
2019-03-23T12:47:46.317Z,12.10
2019-03-23T12:50:15.801Z,12.20
2019-03-23T12:52:45.139Z,12.20
2019-03-23T12:55:14.600Z,12.30
2019-03-23T12:57:43.889Z,12.30
2019-03-23T13:00:17.204Z,12.10
2019-03-23T13:02:46.581Z,11.90
2019-03-23T13:05:15.922Z,11.90
2019-03-23T13:07:45.269Z,12.10
2019-03-23T13:10:15.546Z,12.00
2019-03-23T13:12:46.067Z,11.90
2019-03-23T13:15:17.059Z,12.10
2019-03-23T13:17:46.476Z,12.20
2019-03-23T13:20:16.174Z,12.30
2019-03-23T13:22:46.223Z,12.40
2019-03-23T13:25:15.694Z,12.60
2019-03-23T13:27:45.033Z,12.70
2019-03-23T13:30:18.145Z,12.90
2019-03-23T13:32:47.559Z,13.00
2019-03-23T13:35:16.900Z,13.20
2019-03-23T13:37:46.732Z,13.30
2019-03-23T13:40:16.163Z,13.20
2019-03-23T13:42:45.502Z,13.30
2019-03-23T13:45:15.357Z,13.30
2019-03-23T13:47:44.693Z,13.20
2019-03-23T13:50:17.485Z,13.20
2019-03-23T13:52:46.858Z,13.40
2019-03-23T13:55:27.920Z,13.30
2019-03-23T13:58:08.693Z,13.40
2019-03-23T14:00:38.331Z,13.40
2019-03-23T14:03:08.679Z,13.40
2019-03-23T14:05:38.256Z,13.30
2019-03-23T14:08:07.665Z,13.30
2019-03-23T14:10:37.003Z,13.20
2019-03-23T14:13:06.355Z,13.10
2019-03-23T14:15:35.885Z,12.90
2019-03-23T14:18:05.364Z,12.90
2019-03-23T14:20:34.779Z,12.60
2019-03-23T14:23:04.423Z,12.70
2019-03-23T14:25:33.760Z,12.70
2019-03-23T14:28:03.095Z,12.40
2019-03-23T14:30:32.436Z,12.40
2019-03-23T14:33:01.779Z,12.40
2019-03-23T14:35:31.116Z,12.40
2019-03-23T14:38:00.459Z,12.50
2019-03-23T14:40:29.800Z,12.50
2019-03-23T14:42:59.142Z,12.70
2019-03-23T14:45:28.480Z,12.80
2019-03-23T14:47:57.885Z,13.00
2019-03-23T14:50:27.223Z,13.10
2019-03-23T14:52:56.566Z,13.00
2019-03-23T14:55:25.904Z,13.10
2019-03-23T14:57:55.245Z,13.00
2019-03-23T15:00:30.535Z,13.00
2019-03-23T15:03:00.040Z,13.20
2019-03-23T15:05:29.373Z,13.10
2019-03-23T15:07:58.717Z,13.10
2019-03-23T15:10:28.053Z,13.20
2019-03-23T15:12:58.930Z,13.20
2019-03-23T15:15:28.270Z,13.10
2019-03-23T15:17:57.608Z,13.10
2019-03-23T15:20:26.951Z,13.10
2019-03-23T15:22:56.287Z,13.10
2019-03-23T15:25:25.621Z,13.20
2019-03-23T15:27:54.966Z,13.20
2019-03-23T15:30:24.306Z,13.20
2019-03-23T15:32:53.645Z,13.40
2019-03-23T15:35:23.016Z,13.40
2019-03-23T15:37:52.355Z,13.30
2019-03-23T15:40:21.689Z,13.40
2019-03-23T15:42:51.043Z,13.30
2019-03-23T15:45:20.384Z,13.30
2019-03-23T15:47:49.723Z,13.40
2019-03-23T15:50:19.068Z,13.30
2019-03-23T15:52:48.422Z,13.10
2019-03-23T15:55:17.764Z,13.00
2019-03-23T15:57:47.114Z,12.80
2019-03-23T16:00:17.208Z,12.70
2019-03-23T16:02:46.553Z,12.60
2019-03-23T16:05:15.908Z,12.70
2019-03-23T16:07:45.244Z,12.70
2019-03-23T16:10:15.023Z,12.70
2019-03-23T16:12:45.146Z,12.70
2019-03-23T16:15:15.391Z,12.60
2019-03-23T16:17:44.743Z,12.50
2019-03-23T16:20:15.303Z,12.40
2019-03-23T16:22:44.642Z,12.20
2019-03-23T16:25:14.307Z,12.30
2019-03-23T16:27:43.659Z,12.20
2019-03-23T16:30:13.613Z,12.10
2019-03-23T16:32:42.954Z,12.00
2019-03-23T16:35:12.572Z,12.00
2019-03-23T16:37:41.921Z,12.00
2019-03-23T16:40:12.178Z,12.10
2019-03-23T16:42:45.596Z,12.10
2019-03-23T16:45:12.956Z,12.10
2019-03-23T16:47:42.378Z,11.90
2019-03-23T16:50:12.008Z,11.90
2019-03-23T16:52:41.414Z,11.80
2019-03-23T16:55:12.595Z,11.80
2019-03-23T16:57:41.932Z,11.60
2019-03-23T17:00:14.595Z,11.50
2019-03-23T17:02:43.972Z,11.40
2019-03-23T17:05:14.924Z,11.40
2019-03-23T17:07:44.262Z,11.20
2019-03-23T17:10:14.120Z,11.00
2019-03-23T17:12:43.466Z,11.00
2019-03-23T17:15:13.216Z,10.90
2019-03-23T17:17:42.563Z,10.80
2019-03-23T17:20:12.237Z,10.70
2019-03-23T17:22:41.579Z,10.60
2019-03-23T17:25:11.526Z,10.60
2019-03-23T17:27:40.870Z,10.50
2019-03-23T17:30:10.746Z,10.30
2019-03-23T17:32:40.086Z,10.30
2019-03-23T17:35:10.036Z,10.20
2019-03-23T17:37:39.400Z,10.00
2019-03-23T17:40:09.338Z,10.00
2019-03-23T17:42:38.681Z,9.80
2019-03-23T17:45:08.738Z,9.70
2019-03-23T17:47:38.089Z,9.70
2019-03-23T17:50:07.758Z,9.60
2019-03-23T17:52:37.156Z,9.60
2019-03-23T17:55:08.950Z,9.50
2019-03-23T17:57:38.281Z,9.40
2019-03-23T18:00:10.398Z,9.40
2019-03-23T18:02:39.735Z,9.30
2019-03-23T18:05:12.064Z,9.20
2019-03-23T18:07:41.073Z,9.10
2019-03-23T18:10:11.133Z,9.00
2019-03-23T18:12:40.457Z,9.00
2019-03-23T18:15:12.989Z,8.90
2019-03-23T18:17:42.331Z,8.80
2019-03-23T18:20:12.172Z,8.70
2019-03-23T18:22:41.511Z,8.70
2019-03-23T18:25:11.352Z,8.70
2019-03-23T18:27:40.691Z,8.70
2019-03-23T18:30:39.872Z,8.70
2019-03-23T18:33:09.285Z,8.60
2019-03-23T18:35:38.679Z,8.60
2019-03-23T18:38:08.092Z,8.50
2019-03-23T18:40:37.772Z,8.40
2019-03-23T18:43:07.513Z,8.40
2019-03-23T18:45:37.131Z,8.40
2019-03-23T18:48:06.606Z,8.40
2019-03-23T18:50:35.940Z,8.30
2019-03-23T18:53:05.616Z,8.20
2019-03-23T18:55:34.954Z,8.10
2019-03-23T18:58:04.529Z,8.10
2019-03-23T19:00:37.078Z,8.00
2019-03-23T19:03:06.575Z,8.00
2019-03-23T19:05:36.336Z,7.90
2019-03-23T19:08:06.483Z,7.90
2019-03-23T19:10:36.063Z,7.90
2019-03-23T19:13:05.803Z,7.80
2019-03-23T19:15:35.152Z,7.80
2019-03-23T19:18:05.907Z,7.70
2019-03-23T19:20:35.242Z,7.60
2019-03-23T19:23:05.320Z,7.60
2019-03-23T19:25:34.727Z,7.60
2019-03-23T19:28:04.598Z,7.50
2019-03-23T19:30:33.937Z,7.40
2019-03-23T19:33:03.274Z,7.50
2019-03-23T19:35:32.625Z,7.40
2019-03-23T19:38:01.962Z,7.30
2019-03-23T19:40:31.400Z,7.30
2019-03-23T19:43:00.752Z,7.30
2019-03-23T19:45:30.098Z,7.20
2019-03-23T19:47:59.490Z,7.20
2019-03-23T19:50:28.831Z,7.20
2019-03-23T19:52:58.167Z,7.10
2019-03-23T19:55:27.511Z,7.10
2019-03-23T19:57:56.844Z,7.10
2019-03-23T20:00:26.267Z,7.10
2019-03-23T20:02:55.628Z,7.10
2019-03-23T20:05:24.965Z,7.10
2019-03-23T20:07:54.301Z,7.10
2019-03-23T20:10:23.644Z,7.10
2019-03-23T20:12:52.997Z,7.10
2019-03-23T20:15:22.325Z,7.00
2019-03-23T20:17:51.661Z,7.00
2019-03-23T20:20:21.246Z,7.00
2019-03-23T20:22:50.581Z,6.90
2019-03-23T20:25:19.925Z,6.80
2019-03-23T20:27:49.262Z,6.80
2019-03-23T20:30:20.614Z,6.80
2019-03-23T20:32:49.954Z,6.80
2019-03-23T20:35:19.298Z,6.70
2019-03-23T20:37:48.680Z,6.70
2019-03-23T20:40:18.008Z,6.70
2019-03-23T20:42:47.347Z,6.60
2019-03-23T20:45:29.238Z,6.60
2019-03-23T20:47:59.017Z,6.60
2019-03-23T20:50:28.352Z,6.60
2019-03-23T20:52:57.861Z,6.50
2019-03-23T20:55:30.086Z,6.50
2019-03-23T20:57:59.573Z,6.50
2019-03-23T21:00:28.919Z,6.50
2019-03-23T21:02:58.258Z,6.40
2019-03-23T21:05:33.771Z,6.40
2019-03-23T21:07:58.672Z,6.40
2019-03-23T21:10:28.008Z,6.30
2019-03-23T21:12:57.352Z,6.30
2019-03-23T21:15:26.714Z,6.30
2019-03-23T21:17:56.049Z,6.30
2019-03-23T21:20:25.396Z,6.30
2019-03-23T21:22:54.734Z,6.20
2019-03-23T21:25:24.080Z,6.20
2019-03-23T21:27:53.418Z,6.10
2019-03-23T21:30:23.897Z,6.10
2019-03-23T21:32:53.237Z,6.10
2019-03-23T21:35:22.625Z,6.10
2019-03-23T21:37:51.918Z,6.00
2019-03-23T21:40:21.271Z,6.00
2019-03-23T21:42:50.608Z,5.90
2019-03-23T21:45:19.945Z,5.90
2019-03-23T21:47:49.284Z,5.90
2019-03-23T21:50:18.625Z,5.90
2019-03-23T21:52:47.960Z,5.80
2019-03-23T21:55:17.360Z,5.80
2019-03-23T21:57:46.703Z,5.80
2019-03-23T22:00:34.264Z,5.70
2019-03-23T22:03:03.823Z,5.70
2019-03-23T22:05:33.158Z,5.70
2019-03-23T22:08:02.564Z,5.70
2019-03-23T22:10:31.909Z,5.60
2019-03-23T22:13:01.238Z,5.60
2019-03-23T22:15:32.447Z,5.60
2019-03-23T22:18:01.854Z,5.50
2019-03-23T22:20:31.190Z,5.50
2019-03-23T22:23:00.526Z,5.40
2019-03-23T22:25:29.864Z,5.40
2019-03-23T22:27:59.204Z,5.40
2019-03-23T22:30:28.548Z,5.40
2019-03-23T22:32:57.905Z,5.30
2019-03-23T22:35:27.258Z,5.30
2019-03-23T22:37:56.604Z,5.20
2019-03-23T22:40:28.139Z,5.20
2019-03-23T22:42:57.003Z,5.20
2019-03-23T22:45:26.337Z,5.20
2019-03-23T22:47:55.681Z,5.10
2019-03-23T22:50:25.015Z,5.10
2019-03-23T22:52:54.354Z,5.00
2019-03-23T22:55:23.690Z,5.00
2019-03-23T22:57:53.029Z,5.00
2019-03-23T23:00:27.055Z,4.90
2019-03-23T23:02:56.390Z,4.90
2019-03-23T23:05:25.726Z,4.90
2019-03-23T23:07:55.063Z,4.80
2019-03-23T23:10:24.397Z,4.80
2019-03-23T23:12:54.730Z,4.70
2019-03-23T23:15:24.065Z,4.70
2019-03-23T23:17:53.420Z,4.70
2019-03-23T23:20:22.748Z,4.70
2019-03-23T23:22:52.088Z,4.70
2019-03-23T23:25:21.427Z,4.60
2019-03-23T23:27:50.766Z,4.60
2019-03-23T23:30:20.511Z,4.60
2019-03-23T23:32:49.873Z,4.50
2019-03-23T23:35:19.216Z,4.50
2019-03-23T23:37:48.566Z,4.50
2019-03-23T23:40:17.902Z,4.50
2019-03-23T23:42:47.245Z,4.50
2019-03-23T23:45:18.254Z,4.40
2019-03-23T23:47:47.629Z,4.40
2019-03-23T23:50:16.966Z,4.40
2019-03-23T23:52:46.307Z,4.30
2019-03-23T23:55:15.643Z,4.30
2019-03-23T23:57:44.995Z,4.20
